Terminal Aerodrome Forecast
Issued by NWS Charleston, WV

Home | Current Version | Previous Version | Text Only | Print | Product List | Glossary On
Versions: 1 2 3 4 5 6 7 8 9 10 11 12 13 14 15 16 17 18 19 20 21 22 23 24
000
FTUS41 KRLX 260530
TAFBKW
TAF
KBKW 260530Z 2606/2706 16008KT P6SM BKN100
     FM261500 16012KT P6SM -SHRA BKN045
     FM261800 16012G19KT P6SM -SHRA BKN026
     FM262000 16014G23KT P6SM -SHRA BKN035
     FM270100 16009KT P6SM SHRA BKN040=

USA.gov is the U.S. government's official web portal to all federal, state and local government web resources and services.